Time;durP1;ratioP1;P1;durP2;ratioP2;P2;SDS_P1;SDS_P2;PMS_P1;PMS_P2;Temp;Humidity;BMP_temperature;BMP_pressure;BME280_temperature;BME280_humidity;BME280_pressure;Samples;Min_cycle;Max_cycle;Signal;HPM_P1;HPM_P2
2023/02/14 00:01:45;;;;;;;43.78;21.08;;;3.00;99.90;;;;;;4998592;28;20121;-88
2023/02/14 00:04:11;;;;;;;42.90;20.80;;;3.00;99.90;;;;;;4998721;28;20394;-88
2023/02/14 00:06:37;;;;;;;35.47;18.15;;;3.10;99.90;;;;;;5002883;28;20486;-88
2023/02/14 00:09:15;;;;;;;33.65;18.67;;;3.00;99.90;;;;;;5002623;28;20038;-88
2023/02/14 00:11:41;;;;;;;41.03;20.90;;;3.00;99.90;;;;;;5009164;28;20023;-88
2023/02/14 00:16:51;;;;;;;35.40;17.83;;;3.00;99.90;;;;;;5001670;28;20038;-88
2023/02/14 00:19:18;;;;;;;26.50;14.98;;;2.90;99.90;;;;;;5010308;28;20022;-88
2023/02/14 00:21:45;;;;;;;26.90;14.68;;;2.80;99.90;;;;;;4996644;28;20022;-88
2023/02/14 00:24:11;;;;;;;26.38;14.02;;;2.80;99.90;;;;;;5010553;28;20026;-88
2023/02/14 00:26:37;;;;;;;27.60;15.63;;;2.70;99.90;;;;;;5011006;28;20547;-88
2023/02/14 00:29:07;;;;;;;28.88;15.18;;;2.70;99.90;;;;;;5014729;28;20497;-88
2023/02/14 00:31:33;;;;;;;31.10;15.52;;;2.50;99.90;;;;;;5015035;28;20112;-88
2023/02/14 00:33:59;;;;;;;30.17;15.48;;;2.50;99.90;;;;;;5010892;28;20100;-88
2023/02/14 00:36:25;;;;;;;32.08;15.98;;;2.50;99.90;;;;;;4983763;28;20046;-88
2023/02/14 00:38:50;;;;;;;40.97;19.50;;;2.50;99.90;;;;;;4997818;28;20056;-88
2023/02/14 00:41:19;;;;;;;32.70;16.77;;;2.50;99.90;;;;;;4994823;28;20030;-88
2023/02/14 00:43:46;;;;;;;30.48;15.13;;;2.50;99.90;;;;;;5014578;28;20033;-88
2023/02/14 00:46:12;;;;;;;34.65;18.08;;;2.50;99.90;;;;;;5014190;28;20474;-88
2023/02/14 00:48:38;;;;;;;29.13;15.95;;;2.50;99.90;;;;;;5010328;28;20034;-88
2023/02/14 00:51:03;;;;;;;26.92;15.75;;;2.50;99.90;;;;;;4985033;28;20077;-88
2023/02/14 00:53:29;;;;;;;26.27;13.70;;;2.40;99.90;;;;;;4996076;28;20048;-88
2023/02/14 00:55:54;;;;;;;24.80;14.77;;;2.30;99.90;;;;;;5011708;28;20490;-88
2023/02/14 00:58:20;;;;;;;29.60;15.55;;;2.30;99.90;;;;;;4988309;28;20501;-88
2023/02/14 01:00:45;;;;;;;22.95;12.98;;;2.30;99.90;;;;;;4996306;28;20026;-88
2023/02/14 01:03:11;;;;;;;25.13;13.88;;;2.20;99.90;;;;;;5015371;28;20026;-88
2023/02/14 01:05:36;;;;;;;23.00;13.23;;;2.20;99.90;;;;;;4997572;28;20043;-88
2023/02/14 01:08:02;;;;;;;23.23;13.60;;;2.10;99.90;;;;;;5014637;28;20034;-88
2023/02/14 01:10:28;;;;;;;26.90;12.75;;;2.10;99.90;;;;;;4982367;28;20049;-88
2023/02/14 01:12:53;;;;;;;27.42;13.13;;;2.10;99.90;;;;;;4997564;28;20083;-88
2023/02/14 01:15:19;;;;;;;20.42;12.25;;;2.10;99.90;;;;;;4993347;28;20026;-88
2023/02/14 01:17:44;;;;;;;18.42;11.23;;;2.10;99.90;;;;;;5011562;28;20046;-88
2023/02/14 01:20:10;;;;;;;19.95;11.30;;;2.00;99.90;;;;;;4996681;28;20076;-88
2023/02/14 01:22:36;;;;;;;24.25;12.40;;;2.00;99.90;;;;;;5017323;28;20038;-88
2023/02/14 01:25:03;;;;;;;18.52;11.32;;;2.00;99.90;;;;;;5013114;28;20084;-89
2023/02/14 01:27:29;;;;;;;23.25;13.10;;;2.00;99.90;;;;;;4997147;28;20018;-88
2023/02/14 01:29:54;;;;;;;22.13;12.63;;;2.10;99.90;;;;;;4996795;28;20150;-87
2023/02/14 01:32:20;;;;;;;20.00;11.55;;;2.00;99.90;;;;;;5013325;28;20026;-88
2023/02/14 01:34:46;;;;;;;19.27;11.25;;;2.00;99.90;;;;;;4995933;28;20032;-88
2023/02/14 01:37:12;;;;;;;19.48;10.35;;;2.00;99.90;;;;;;4996383;28;20046;-88
2023/02/14 01:39:38;;;;;;;18.25;10.80;;;1.90;99.90;;;;;;4993451;28;20025;-88
2023/02/14 01:42:04;;;;;;;18.58;10.73;;;1.80;99.90;;;;;;4995782;28;20046;-88
2023/02/14 01:44:30;;;;;;;19.30;10.25;;;1.80;99.90;;;;;;4986234;28;20034;-88
2023/02/14 01:46:56;;;;;;;25.48;12.57;;;1.80;99.90;;;;;;5011445;28;20480;-88
2023/02/14 01:49:30;;;;;;;18.80;11.45;;;1.70;99.90;;;;;;4996193;28;20037;-88
2023/02/14 01:52:07;;;;;;;22.48;12.52;;;1.80;99.90;;;;;;4995348;28;20116;-88
2023/02/14 01:54:37;;;;;;;22.88;11.10;;;1.80;99.90;;;;;;4994708;28;20041;-88
2023/02/14 01:57:07;;;;;;;20.40;11.38;;;1.90;99.90;;;;;;5018754;28;20033;-88
2023/02/14 01:59:39;;;;;;;25.35;12.65;;;1.90;99.90;;;;;;5011276;28;20113;-88
2023/02/14 02:02:06;;;;;;;26.80;13.35;;;2.00;99.90;;;;;;4996768;28;20025;-87
2023/02/14 02:04:44;;;;;;;22.60;12.52;;;2.00;99.90;;;;;;5014957;28;20034;-87
2023/02/14 02:07:16;;;;;;;26.90;13.55;;;2.10;99.90;;;;;;4996636;28;20029;-88
2023/02/14 02:09:56;;;;;;;20.52;9.95;;;2.10;99.90;;;;;;5017328;28;20048;-88
2023/02/14 02:12:22;;;;;;;20.00;10.77;;;2.10;99.90;;;;;;5011617;28;20076;-88
2023/02/14 02:14:51;;;;;;;18.55;10.10;;;2.00;99.90;;;;;;4997789;28;20410;-88
2023/02/14 02:17:37;;;;;;;19.80;9.57;;;1.90;99.90;;;;;;4995536;28;20038;-88
2023/02/14 02:20:02;;;;;;;20.98;10.90;;;1.90;99.90;;;;;;4995896;28;20032;-89
2023/02/14 02:22:34;;;;;;;24.15;13.23;;;1.90;99.90;;;;;;4995633;28;20018;-88
2023/02/14 02:25:37;;;;;;;24.65;13.27;;;1.90;99.90;;;;;;4996042;28;20467;-88
2023/02/14 02:28:02;;;;;;;24.13;12.63;;;1.90;99.90;;;;;;5008297;28;20048;-88
2023/02/14 02:31:03;;;;;;;25.42;13.02;;;1.90;99.90;;;;;;4995465;28;20484;-88
2023/02/14 02:33:55;;;;;;;26.00;13.00;;;1.90;99.90;;;;;;4995158;28;20038;-88
2023/02/14 02:36:32;;;;;;;26.50;13.32;;;2.00;99.90;;;;;;4994901;28;20053;-88
2023/02/14 02:39:21;;;;;;;26.58;13.85;;;2.00;99.90;;;;;;4995917;28;20401;-88
2023/02/14 02:42:07;;;;;;;28.58;15.10;;;2.00;99.90;;;;;;5012422;28;20497;-88
2023/02/14 02:44:49;;;;;;;32.55;16.25;;;2.00;99.90;;;;;;5012342;28;20064;-88
2023/02/14 02:47:45;;;;;;;27.83;14.45;;;2.10;99.90;;;;;;4988666;28;20161;-88
2023/02/14 02:53:27;;;;;;;31.60;14.73;;;2.20;99.90;;;;;;5007652;28;20508;-88
2023/02/14 02:59:23;;;;;;;30.90;14.75;;;2.20;99.90;;;;;;5013767;28;20041;-88
2023/02/14 03:02:06;;;;;;;28.90;14.82;;;2.30;99.90;;;;;;4990176;28;20030;-88
2023/02/14 03:07:37;;;;;;;31.58;14.55;;;2.20;99.90;;;;;;5001769;28;20008;-89
2023/02/14 03:10:06;;;;;;;28.02;14.25;;;2.20;99.90;;;;;;5009438;28;20045;-89
2023/02/14 03:12:32;;;;;;;27.85;14.23;;;2.20;99.90;;;;;;5005379;28;20562;-88
2023/02/14 03:15:09;;;;;;;27.73;14.57;;;2.10;99.90;;;;;;5009582;28;20034;-88
2023/02/14 03:17:50;;;;;;;25.83;12.98;;;2.10;99.90;;;;;;5011591;28;20122;-88
2023/02/14 03:20:22;;;;;;;26.63;14.50;;;2.10;99.90;;;;;;5006157;28;20129;-89
2023/02/14 03:22:49;;;;;;;24.05;14.07;;;2.00;99.90;;;;;;5001413;28;20025;-88
2023/02/14 03:25:30;;;;;;;29.17;14.95;;;2.10;99.90;;;;;;5007576;28;20034;-87
2023/02/14 03:28:06;;;;;;;32.05;15.63;;;2.10;99.90;;;;;;4998376;28;20129;-89
2023/02/14 03:30:50;;;;;;;30.35;16.38;;;2.10;99.90;;;;;;5012271;28;20084;-89
2023/02/14 03:33:24;;;;;;;30.50;16.25;;;2.10;99.90;;;;;;4995563;28;20049;-89
2023/02/14 03:36:02;;;;;;;29.80;15.30;;;2.10;99.90;;;;;;4978303;28;20082;-89
2023/02/14 03:38:38;;;;;;;28.77;15.27;;;2.20;99.90;;;;;;4994914;28;20030;-88
2023/02/14 03:41:08;;;;;;;31.48;15.18;;;2.10;99.90;;;;;;5009024;28;20038;-88
2023/02/14 03:43:38;;;;;;;34.50;17.30;;;2.20;99.90;;;;;;5011288;28;20040;-88
2023/02/14 03:46:16;;;;;;;29.65;16.17;;;2.20;99.90;;;;;;4986338;28;20038;-88
2023/02/14 03:48:44;;;;;;;32.03;16.42;;;2.30;99.90;;;;;;5001753;28;20038;-88
2023/02/14 03:51:13;;;;;;;32.83;17.10;;;2.30;99.90;;;;;;5009601;28;20058;-89
2023/02/14 03:53:44;;;;;;;32.25;16.92;;;2.30;99.90;;;;;;4998673;28;20038;-89
2023/02/14 03:56:14;;;;;;;39.57;17.47;;;2.30;99.90;;;;;;5012705;28;20026;-88
2023/02/14 03:58:45;;;;;;;29.15;16.38;;;2.30;99.90;;;;;;4991463;28;20289;-88
2023/02/14 04:01:29;;;;;;;34.75;16.10;;;2.30;99.90;;;;;;4994476;28;20041;-89
2023/02/14 04:03:56;;;;;;;36.50;17.42;;;2.30;99.90;;;;;;5011057;28;20394;-89
2023/02/14 04:06:22;;;;;;;32.25;17.23;;;2.30;99.90;;;;;;4995019;28;20030;-89
2023/02/14 04:08:47;;;;;;;42.83;20.58;;;2.40;99.90;;;;;;5005230;28;20030;-88
2023/02/14 04:11:13;;;;;;;37.50;19.13;;;2.40;99.90;;;;;;5011829;28;20041;-89
2023/02/14 04:13:38;;;;;;;37.30;17.50;;;2.40;99.90;;;;;;4993999;28;20033;-89
2023/02/14 04:16:05;;;;;;;34.03;16.45;;;2.40;99.90;;;;;;5016061;28;20022;-88
2023/02/14 04:21:14;;;;;;;40.75;19.67;;;2.40;99.90;;;;;;5011862;28;20493;-88
2023/02/14 04:23:40;;;;;;;36.65;19.42;;;2.40;99.90;;;;;;4994955;28;20029;-88
2023/02/14 04:26:06;;;;;;;32.08;18.33;;;2.40;99.90;;;;;;4995056;28;20030;-89
2023/02/14 04:28:32;;;;;;;39.67;19.50;;;2.40;99.90;;;;;;5010632;28;20030;-88
2023/02/14 04:31:03;;;;;;;44.58;20.08;;;2.40;99.90;;;;;;4994727;28;20022;-89
2023/02/14 04:33:29;;;;;;;36.10;17.77;;;2.30;99.90;;;;;;5010667;28;20029;-90
2023/02/14 04:35:54;;;;;;;40.83;19.35;;;2.40;99.90;;;;;;5013994;28;20056;-88
2023/02/14 04:38:20;;;;;;;40.72;20.08;;;2.40;99.90;;;;;;4998508;28;20018;-89
2023/02/14 04:40:48;;;;;;;37.50;20.02;;;2.30;99.90;;;;;;5017237;28;20045;-88
2023/02/14 04:43:13;;;;;;;39.60;19.85;;;2.30;99.90;;;;;;4997272;28;20033;-89
2023/02/14 04:45:39;;;;;;;42.92;20.98;;;2.30;99.90;;;;;;4997894;28;20037;-89
2023/02/14 04:48:04;;;;;;;42.75;20.63;;;2.30;99.90;;;;;;4998635;28;20081;-88
2023/02/14 04:50:30;;;;;;;36.78;18.25;;;2.40;99.90;;;;;;4998327;28;20485;-88
2023/02/14 04:52:55;;;;;;;41.58;20.17;;;2.40;99.90;;;;;;4990803;28;20142;-88
2023/02/14 04:55:21;;;;;;;44.05;20.88;;;2.40;99.90;;;;;;4997427;28;20067;-89
2023/02/14 04:57:46;;;;;;;36.03;18.95;;;2.40;99.90;;;;;;4995001;28;20026;-88
2023/02/14 05:00:13;;;;;;;38.70;19.42;;;2.40;99.90;;;;;;5020257;28;20629;-90
2023/02/14 05:02:38;;;;;;;39.80;21.00;;;2.40;99.90;;;;;;4997262;28;20482;-87
2023/02/14 05:05:04;;;;;;;42.35;20.23;;;2.40;99.90;;;;;;5002459;28;20042;-88
2023/02/14 05:07:30;;;;;;;38.88;19.75;;;2.40;99.90;;;;;;5004389;28;20057;-89
2023/02/14 05:09:55;;;;;;;41.00;19.58;;;2.30;99.90;;;;;;4991174;28;20041;-88
2023/02/14 05:12:21;;;;;;;38.47;19.55;;;2.30;99.90;;;;;;4995040;28;20371;-89
2023/02/14 05:14:46;;;;;;;38.78;20.23;;;2.30;99.90;;;;;;5011949;28;20029;-88
2023/02/14 05:17:12;;;;;;;38.90;19.92;;;2.30;99.90;;;;;;4981944;28;20038;-89
2023/02/14 05:19:37;;;;;;;42.78;19.88;;;2.20;99.90;;;;;;4997020;28;20021;-88
2023/02/14 05:22:03;;;;;;;40.00;19.75;;;2.20;99.90;;;;;;4996985;28;20056;-89
2023/02/14 05:24:28;;;;;;;42.25;19.90;;;2.20;99.90;;;;;;4997046;28;20025;-88
2023/02/14 05:26:54;;;;;;;40.92;20.05;;;2.20;99.90;;;;;;5012272;28;20026;-87
2023/02/14 05:29:19;;;;;;;40.08;19.60;;;2.20;99.90;;;;;;4993518;28;20034;-88
2023/02/14 05:31:45;;;;;;;45.25;21.25;;;2.10;99.90;;;;;;4989656;28;20041;-88
2023/02/14 05:34:12;;;;;;;39.65;19.10;;;2.10;99.90;;;;;;4977967;28;20022;-88
2023/02/14 05:36:37;;;;;;;40.65;21.15;;;2.10;99.90;;;;;;4982471;28;20491;-88
2023/02/14 05:39:03;;;;;;;43.10;21.05;;;2.10;99.90;;;;;;4992550;28;20042;-88
2023/02/14 05:41:29;;;;;;;43.30;21.65;;;2.00;99.90;;;;;;5007707;28;20031;-89
2023/02/14 05:43:54;;;;;;;40.17;19.90;;;2.00;99.90;;;;;;4983113;28;20018;-89
2023/02/14 05:46:20;;;;;;;41.97;20.75;;;2.00;99.90;;;;;;4991640;28;20049;-89
2023/02/14 05:48:46;;;;;;;42.67;21.52;;;2.10;99.90;;;;;;4999570;28;20066;-89
2023/02/14 05:51:11;;;;;;;46.80;21.15;;;2.10;99.90;;;;;;4986072;28;20098;-88
2023/02/14 05:53:37;;;;;;;38.03;19.25;;;2.00;99.90;;;;;;4993497;28;20037;-89
2023/02/14 05:56:04;;;;;;;42.63;20.10;;;2.00;99.90;;;;;;4993714;28;20030;-89
2023/02/14 05:58:30;;;;;;;40.28;20.30;;;2.00;99.90;;;;;;5024585;28;20084;-89
2023/02/14 06:00:57;;;;;;;44.13;21.35;;;1.90;99.90;;;;;;4991376;28;20026;-89
2023/02/14 06:03:22;;;;;;;42.80;20.85;;;1.90;99.90;;;;;;4977634;28;20062;-89
2023/02/14 06:05:48;;;;;;;42.53;20.15;;;1.90;99.90;;;;;;4980648;28;20073;-88
2023/02/14 06:08:14;;;;;;;44.17;19.92;;;1.90;99.90;;;;;;4977603;28;20033;-89
2023/02/14 06:10:39;;;;;;;45.53;21.67;;;1.90;99.90;;;;;;5009132;28;20398;-89
2023/02/14 06:13:07;;;;;;;43.33;20.80;;;1.90;99.90;;;;;;4993209;28;20113;-89
2023/02/14 06:15:36;;;;;;;35.83;18.35;;;1.90;99.90;;;;;;4993208;28;20029;-90
2023/02/14 06:18:03;;;;;;;44.45;20.58;;;1.90;99.90;;;;;;4992883;28;20026;-89
2023/02/14 06:20:29;;;;;;;38.22;18.98;;;1.90;99.90;;;;;;4997465;28;20076;-88
2023/02/14 06:22:55;;;;;;;41.20;19.92;;;1.90;99.90;;;;;;4993473;28;20501;-89
2023/02/14 06:25:22;;;;;;;38.58;19.55;;;1.90;99.90;;;;;;4993541;28;20026;-89
2023/02/14 06:27:48;;;;;;;39.33;19.70;;;1.90;99.90;;;;;;4990305;28;20512;-89
2023/02/14 06:30:14;;;;;;;41.80;21.15;;;1.90;99.90;;;;;;4991911;28;20145;-89
2023/02/14 06:32:40;;;;;;;43.40;19.67;;;1.90;99.90;;;;;;4988677;28;20022;-89
2023/02/14 06:35:06;;;;;;;37.75;19.92;;;1.80;99.90;;;;;;4975760;28;20090;-87
2023/02/14 06:37:32;;;;;;;44.72;20.67;;;1.80;99.90;;;;;;4991027;28;20042;-83
2023/02/14 06:39:58;;;;;;;42.38;20.88;;;1.80;99.90;;;;;;4980105;28;20041;-87
2023/02/14 06:42:23;;;;;;;38.40;19.88;;;1.80;99.90;;;;;;4986310;28;20407;-90
2023/02/14 06:44:49;;;;;;;35.50;19.38;;;1.80;99.90;;;;;;4990702;28;20108;-89
2023/02/14 06:47:14;;;;;;;33.70;19.55;;;1.80;99.90;;;;;;4974916;28;20045;-88
2023/02/14 06:49:40;;;;;;;46.92;22.85;;;1.80;99.90;;;;;;4988258;28;20080;-90
2023/02/14 06:52:06;;;;;;;40.25;21.40;;;1.70;99.90;;;;;;4994678;28;20033;-89
2023/02/14 06:54:31;;;;;;;45.30;20.95;;;1.70;99.90;;;;;;4991540;28;20066;-89
2023/02/14 06:56:57;;;;;;;45.42;21.73;;;1.70;99.90;;;;;;4992579;28;20032;-90
2023/02/14 06:59:23;;;;;;;44.13;20.45;;;1.70;99.90;;;;;;4975136;28;20062;-88
2023/02/14 07:01:49;;;;;;;42.00;20.65;;;1.70;99.90;;;;;;4982446;28;20092;-89
2023/02/14 07:04:16;;;;;;;35.85;19.50;;;1.70;99.90;;;;;;4993200;28;20488;-89
2023/02/14 07:06:42;;;;;;;39.13;19.05;;;1.60;99.90;;;;;;4993888;28;20030;-89
2023/02/14 07:09:07;;;;;;;55.45;20.40;;;1.70;99.90;;;;;;5020129;28;20049;-87
2023/02/14 07:11:33;;;;;;;37.03;19.02;;;1.70;99.90;;;;;;5008040;28;20030;-88
2023/02/14 07:13:58;;;;;;;38.25;19.25;;;1.60;99.90;;;;;;5012850;28;20039;-89
2023/02/14 07:16:24;;;;;;;42.55;19.58;;;1.70;99.90;;;;;;4988785;28;20030;-89
2023/02/14 07:18:50;;;;;;;44.30;20.80;;;1.70;99.90;;;;;;4989266;28;20026;-87
2023/02/14 07:21:15;;;;;;;40.13;18.67;;;1.70;99.90;;;;;;4992564;28;20030;-87
2023/02/14 07:23:45;;;;;;;36.33;18.42;;;1.70;99.90;;;;;;4991755;28;20035;-89
2023/02/14 07:26:10;;;;;;;36.60;18.83;;;1.70;99.90;;;;;;5007395;28;20447;-89
2023/02/14 07:28:36;;;;;;;36.78;19.52;;;1.70;99.90;;;;;;4992082;28;20066;-89
2023/02/14 07:31:02;;;;;;;46.85;20.27;;;1.80;99.90;;;;;;4991446;28;20032;-89
2023/02/14 07:33:28;;;;;;;42.25;20.75;;;1.80;99.90;;;;;;4992424;28;20027;-89
2023/02/14 07:35:54;;;;;;;42.75;20.48;;;1.80;99.90;;;;;;5000343;28;20046;-90
2023/02/14 07:38:19;;;;;;;44.78;20.95;;;1.80;99.90;;;;;;5011740;28;20113;-89
2023/02/14 07:40:45;;;;;;;44.97;22.55;;;1.90;99.90;;;;;;4985576;28;20026;-90
2023/02/14 07:43:10;;;;;;;40.50;18.95;;;1.90;99.90;;;;;;5004571;28;20060;-91
2023/02/14 07:45:36;;;;;;;44.83;20.70;;;1.90;99.90;;;;;;4989171;28;20030;-90
2023/02/14 07:48:02;;;;;;;43.83;22.67;;;1.90;99.90;;;;;;5024578;28;20061;-90
2023/02/14 07:50:28;;;;;;;42.75;22.52;;;1.90;99.90;;;;;;5009937;28;20026;-90
2023/02/14 07:52:54;;;;;;;51.60;24.70;;;2.00;99.90;;;;;;4990537;28;20532;-90
2023/02/14 07:55:21;;;;;;;49.83;24.15;;;2.00;99.90;;;;;;4991780;28;20360;-90
2023/02/14 07:57:48;;;;;;;50.40;25.27;;;2.10;99.90;;;;;;4991466;28;20030;-90
2023/02/14 08:00:14;;;;;;;46.17;24.88;;;2.10;99.90;;;;;;4991532;28;20494;-89
2023/02/14 08:02:40;;;;;;;53.78;25.58;;;2.20;99.90;;;;;;5021457;28;20503;-89
2023/02/14 08:05:06;;;;;;;47.40;26.20;;;2.30;99.90;;;;;;4991131;28;20026;-90
2023/02/14 08:07:35;;;;;;;56.83;27.45;;;2.40;99.90;;;;;;4985707;28;20102;-90
2023/02/14 08:10:00;;;;;;;45.28;25.48;;;2.40;99.90;;;;;;4990060;28;20129;-89
2023/02/14 08:17:57;;;;;;;52.28;26.50;;;2.60;99.90;;;;;;4997125;28;20116;-89
2023/02/14 08:20:22;;;;;;;50.55;26.80;;;2.70;99.90;;;;;;4987210;28;20050;-89
2023/02/14 08:22:48;;;;;;;52.45;28.67;;;2.70;99.90;;;;;;4987250;28;20440;-89
2023/02/14 08:25:13;;;;;;;52.28;27.13;;;2.90;99.90;;;;;;4981071;28;20121;-89
2023/02/14 08:27:39;;;;;;;55.28;29.02;;;3.00;99.90;;;;;;4994906;28;20030;-89
2023/02/14 08:30:05;;;;;;;53.28;29.65;;;3.00;99.90;;;;;;4995543;28;20117;-89
2023/02/14 08:32:31;;;;;;;58.55;31.90;;;3.20;99.90;;;;;;4994157;28;20042;-89
2023/02/14 08:34:56;;;;;;;57.08;30.75;;;3.30;99.90;;;;;;4996056;28;20022;-89
2023/02/14 08:37:22;;;;;;;55.45;31.02;;;3.30;99.90;;;;;;4994619;28;20046;-89
2023/02/14 08:39:47;;;;;;;52.65;31.20;;;3.40;99.90;;;;;;4991826;28;20030;-88
2023/02/14 08:42:13;;;;;;;52.80;30.23;;;3.50;99.90;;;;;;4978863;28;20034;-89
2023/02/14 08:44:38;;;;;;;48.60;27.35;;;3.60;99.90;;;;;;4994307;28;20024;-88
2023/02/14 08:47:04;;;;;;;49.70;27.92;;;3.80;99.90;;;;;;4996935;28;20033;-88
2023/02/14 08:49:29;;;;;;;53.97;29.08;;;3.90;99.90;;;;;;4995034;28;20033;-88
2023/02/14 08:51:55;;;;;;;54.22;29.88;;;3.90;99.90;;;;;;4978637;28;20103;-88
2023/02/14 08:54:22;;;;;;;54.83;28.70;;;4.00;99.90;;;;;;4994852;28;20030;-87
2023/02/14 08:56:47;;;;;;;47.70;28.10;;;4.20;99.90;;;;;;4980644;28;20026;-88
2023/02/14 08:59:13;;;;;;;47.35;28.40;;;4.30;99.90;;;;;;4996022;28;20109;-89
2023/02/14 09:01:38;;;;;;;49.97;28.73;;;4.40;99.90;;;;;;4987310;28;20471;-88
2023/02/14 09:04:04;;;;;;;49.60;29.20;;;4.50;99.90;;;;;;5006300;28;20402;-88
2023/02/14 09:06:29;;;;;;;48.50;29.10;;;4.60;99.90;;;;;;4997170;28;20049;-88
2023/02/14 09:08:55;;;;;;;50.38;26.63;;;4.80;99.90;;;;;;4993912;28;20079;-89
2023/02/14 09:11:22;;;;;;;44.38;26.73;;;4.90;99.90;;;;;;5011319;28;20018;-89
2023/02/14 09:13:49;;;;;;;49.35;28.35;;;5.00;99.90;;;;;;5013864;28;20054;-89
2023/02/14 09:16:17;;;;;;;46.75;27.27;;;5.10;99.90;;;;;;5013397;28;20417;-88
2023/02/14 09:18:44;;;;;;;48.58;27.05;;;5.20;99.90;;;;;;4996971;28;20026;-88
2023/02/14 09:21:11;;;;;;;41.50;25.80;;;5.30;99.90;;;;;;4992412;28;20026;-87
2023/02/14 09:23:37;;;;;;;42.10;25.40;;;5.40;99.90;;;;;;4996378;28;20029;-88
2023/02/14 09:26:05;;;;;;;40.97;25.80;;;5.50;99.90;;;;;;4984436;28;20095;-89
2023/02/14 09:28:31;;;;;;;40.88;25.15;;;5.50;99.90;;;;;;4998166;28;20038;-88
2023/02/14 09:30:57;;;;;;;50.58;25.77;;;5.60;99.90;;;;;;4983951;28;20034;-89
2023/02/14 09:33:26;;;;;;;40.50;24.55;;;5.70;99.90;;;;;;4996841;28;20061;-90
2023/02/14 09:38:35;;;;;;;43.08;24.60;;;5.90;99.90;;;;;;5012617;28;20064;-90
2023/02/14 09:41:06;;;;;;;42.80;24.60;;;5.90;99.90;;;;;;4982438;28;20022;-89
2023/02/14 09:43:45;;;;;;;41.03;23.90;;;6.00;99.90;;;;;;4995426;28;20030;-89
2023/02/14 09:46:14;;;;;;;42.85;24.52;;;6.10;99.90;;;;;;5002760;28;20034;-88
2023/02/14 09:48:45;;;;;;;36.90;22.25;;;6.20;99.90;;;;;;4995189;28;20042;-89
2023/02/14 09:51:15;;;;;;;37.45;24.17;;;6.30;99.90;;;;;;4996679;28;20026;-89
2023/02/14 09:54:08;;;;;;;41.53;25.50;;;6.40;99.90;;;;;;4992559;28;20552;-88
2023/02/14 09:56:46;;;;;;;47.97;24.85;;;6.50;99.90;;;;;;4986402;28;20049;-89
2023/02/14 09:59:22;;;;;;;40.90;24.60;;;6.50;99.90;;;;;;4993953;28;20121;-89
2023/02/14 10:01:53;;;;;;;40.08;24.13;;;6.60;99.90;;;;;;4985601;28;20038;-89
2023/02/14 10:04:37;;;;;;;41.33;24.83;;;6.60;99.90;;;;;;4995073;28;20030;-88
2023/02/14 10:07:26;;;;;;;51.08;25.02;;;6.70;99.90;;;;;;4996378;28;20037;-89
2023/02/14 10:10:13;;;;;;;35.85;23.63;;;6.80;99.90;;;;;;5012712;28;20044;-87
2023/02/14 10:12:46;;;;;;;34.83;23.50;;;6.90;99.90;;;;;;5011748;28;20026;-88
2023/02/14 10:15:17;;;;;;;;;;;7.10;99.90;;;;;;4977165;28;20494;-89
2023/02/14 10:17:57;;;;;;;36.58;22.83;;;7.10;99.90;;;;;;4993142;28;19957;-88
2023/02/14 10:20:37;;;;;;;33.42;21.33;;;7.20;99.90;;;;;;4993508;28;20037;-88
2023/02/14 10:23:32;;;;;;;36.20;23.17;;;7.30;99.90;;;;;;5013622;28;20029;-88
2023/02/14 10:26:11;;;;;;;34.70;22.70;;;7.40;99.90;;;;;;5007715;28;20026;-88
2023/02/14 10:28:44;;;;;;;36.20;22.20;;;7.50;99.90;;;;;;5011082;28;20107;-88
2023/02/14 10:31:20;;;;;;;35.20;23.65;;;7.60;99.90;;;;;;4979025;28;20030;-88
2023/02/14 10:33:55;;;;;;;35.22;23.55;;;7.60;99.90;;;;;;4993911;28;20026;-88
2023/02/14 10:36:43;;;;;;;42.00;25.55;;;7.70;99.90;;;;;;4976498;28;20415;-89
2023/02/14 10:39:35;;;;;;;36.20;23.58;;;7.80;99.90;;;;;;4992896;28;20085;-89
2023/02/14 10:42:49;;;;;;;38.33;23.90;;;7.80;99.90;;;;;;5010856;28;20029;-88
2023/02/14 10:45:37;;;;;;;40.33;24.70;;;7.90;99.90;;;;;;4982768;28;20136;-88
2023/02/14 10:48:41;;;;;;;35.55;24.65;;;8.00;99.90;;;;;;4994927;28;20042;-88
2023/02/14 10:51:20;;;;;;;45.20;27.02;;;8.00;99.90;;;;;;4996023;28;20397;-88
2023/02/14 10:53:59;;;;;;;41.03;24.98;;;8.10;99.90;;;;;;5002179;28;20449;-88
2023/02/14 10:56:33;;;;;;;33.72;23.27;;;8.20;99.90;;;;;;4997236;28;20467;-88
2023/02/14 10:59:12;;;;;;;37.60;25.48;;;8.20;99.90;;;;;;4989194;28;20564;-88
2023/02/14 11:01:38;;;;;;;36.33;23.15;;;8.30;99.90;;;;;;4994538;28;20401;-88
2023/02/14 11:04:07;;;;;;;35.10;23.33;;;8.40;99.90;;;;;;4995252;28;20030;-88
2023/02/14 11:06:33;;;;;;;35.83;22.45;;;8.50;99.90;;;;;;4999744;28;20609;-88
2023/02/14 11:08:59;;;;;;;33.40;21.27;;;8.60;99.90;;;;;;4984349;28;20049;-87
2023/02/14 11:11:30;;;;;;;30.75;20.40;;;8.70;99.90;;;;;;4990601;28;20026;-88
2023/02/14 11:13:56;;;;;;;34.00;23.02;;;8.70;99.90;;;;;;5000966;28;20465;-87
2023/02/14 11:16:33;;;;;;;36.05;22.92;;;8.80;99.90;;;;;;5016338;28;20028;-88
2023/02/14 11:19:11;;;;;;;33.63;21.88;;;8.90;99.90;;;;;;4995087;28;20026;-87
2023/02/14 11:21:38;;;;;;;35.25;22.58;;;9.00;99.90;;;;;;4994782;28;20030;-87
2023/02/14 11:24:17;;;;;;;35.47;22.40;;;9.00;99.90;;;;;;4995578;28;20030;-87
2023/02/14 11:26:48;;;;;;;31.52;20.90;;;9.10;99.90;;;;;;4992198;28;20022;-87
2023/02/14 11:29:25;;;;;;;34.50;20.90;;;9.20;99.90;;;;;;4993463;28;20042;-87
2023/02/14 11:31:51;;;;;;;30.08;21.20;;;9.30;99.90;;;;;;4988380;28;20600;-88
2023/02/14 11:34:32;;;;;;;30.88;21.95;;;9.40;99.90;;;;;;5000792;28;20036;-87
2023/02/14 11:36:58;;;;;;;32.95;22.30;;;9.40;99.90;;;;;;4987555;28;20054;-87
2023/02/14 11:39:33;;;;;;;34.10;21.85;;;9.50;99.90;;;;;;4995172;28;20018;-87
2023/02/14 11:42:05;;;;;;;35.30;22.52;;;9.50;99.90;;;;;;4993419;28;20025;-87
2023/02/14 11:44:35;;;;;;;33.83;22.05;;;9.60;99.90;;;;;;5013671;28;20082;-87
2023/02/14 11:47:24;;;;;;;33.72;22.90;;;9.60;99.90;;;;;;5020468;28;20062;-87
2023/02/14 11:50:04;;;;;;;33.70;22.15;;;9.70;99.90;;;;;;4996821;28;20066;-87
2023/02/14 11:52:31;;;;;;;31.98;21.60;;;9.80;99.90;;;;;;5011099;28;20018;-88
2023/02/14 11:54:58;;;;;;;29.98;21.15;;;9.90;99.90;;;;;;4996596;28;20098;-87
2023/02/14 11:57:31;;;;;;;30.70;21.05;;;10.00;99.90;;;;;;4998428;28;20030;-87
2023/02/14 12:00:00;;;;;;;33.63;22.38;;;10.00;99.90;;;;;;4999173;28;20482;-87
2023/02/14 12:02:37;;;;;;;34.75;21.27;;;10.10;99.90;;;;;;4998374;28;20037;-88
2023/02/14 12:05:31;;;;;;;34.30;21.60;;;10.20;99.90;;;;;;5001169;28;20050;-85
2023/02/14 12:08:07;;;;;;;33.60;21.40;;;10.30;99.90;;;;;;4980955;28;20037;-85
2023/02/14 12:10:37;;;;;;;30.83;20.55;;;10.30;99.90;;;;;;4992945;28;20030;-85
2023/02/14 12:13:09;;;;;;;28.60;19.33;;;10.40;99.90;;;;;;4994262;28;20030;-86
2023/02/14 12:15:36;;;;;;;27.42;19.58;;;10.50;99.90;;;;;;4994961;28;20474;-86
2023/02/14 12:18:36;;;;;;;33.17;21.50;;;10.60;99.90;;;;;;4998129;28;20048;-86
2023/02/14 12:21:24;;;;;;;28.80;20.58;;;10.60;99.90;;;;;;4993256;28;20034;-86
2023/02/14 12:23:59;;;;;;;31.45;21.83;;;10.70;99.90;;;;;;4999790;28;20041;-85
2023/02/14 12:26:35;;;;;;;31.25;21.35;;;10.70;99.90;;;;;;5016751;28;20018;-86
2023/02/14 12:29:31;;;;;;;28.42;20.80;;;10.80;99.90;;;;;;4985546;28;20045;-84
2023/02/14 12:32:01;;;;;;;30.35;21.13;;;10.80;99.90;;;;;;5007465;28;20451;-88
2023/02/14 12:34:28;;;;;;;32.75;20.65;;;10.90;99.90;;;;;;4997423;28;20117;-88
2023/02/14 12:37:17;;;;;;;32.58;20.17;;;10.90;99.90;;;;;;4987271;28;20061;-88
2023/02/14 12:40:05;;;;;;;31.63;19.98;;;11.00;99.90;;;;;;5007142;28;20033;-87
2023/02/14 12:42:49;;;;;;;31.65;20.75;;;11.00;99.90;;;;;;4964168;28;20042;-85
2023/02/14 12:45:22;;;;;;;27.60;19.00;;;11.10;99.90;;;;;;5009175;28;20509;-86
2023/02/14 12:47:59;;;;;;;;;;;11.20;99.90;;;;;;4999643;28;20095;-86
2023/02/14 12:50:40;;;;;;;42.28;23.58;;;11.30;99.90;;;;;;5010031;28;19917;-85
2023/02/14 12:53:44;;;;;;;33.13;19.73;;;11.40;99.90;;;;;;5000850;28;20044;-86
2023/02/14 12:56:25;;;;;;;27.55;18.83;;;11.50;99.90;;;;;;4995085;28;20382;-85
2023/02/14 12:58:56;;;;;;;30.67;19.90;;;11.50;99.90;;;;;;4999038;28;20144;-85
2023/02/14 13:01:34;;;;;;;26.02;18.00;;;11.50;99.90;;;;;;5015316;28;20022;-86
2023/02/14 13:04:28;;;;;;;29.70;18.80;;;11.50;99.90;;;;;;5015898;28;20501;-85
2023/02/14 13:07:04;;;;;;;27.55;17.55;;;11.50;99.90;;;;;;5007430;28;20065;-87
2023/02/14 13:09:56;;;;;;;26.60;17.88;;;11.60;99.90;;;;;;4995839;28;20033;-87
2023/02/14 13:12:36;;;;;;;24.73;17.13;;;11.60;99.90;;;;;;4996239;28;20039;-87
2023/02/14 13:15:14;;;;;;;26.10;18.80;;;11.70;99.90;;;;;;4998245;28;20030;-87
2023/02/14 13:17:43;;;;;;;32.80;18.30;;;11.70;99.90;;;;;;5013726;28;20030;-87